createdAt,value
2023-05-15T00:02:20.532Z,12.40
2023-05-15T00:04:47.889Z,12.35
2023-05-15T00:07:15.291Z,12.32
2023-05-15T00:09:42.597Z,12.29
2023-05-15T00:12:10.010Z,12.28
2023-05-15T00:14:37.185Z,12.26
2023-05-15T00:17:04.373Z,12.25
2023-05-15T00:19:31.731Z,12.22
2023-05-15T00:21:58.912Z,12.17
2023-05-15T00:24:26.130Z,12.17
2023-05-15T00:26:53.338Z,12.17
2023-05-15T00:29:20.581Z,12.17
2023-05-15T00:31:47.882Z,12.15
2023-05-15T00:34:15.134Z,12.14
2023-05-15T00:36:42.318Z,12.11
2023-05-15T00:39:09.666Z,12.10
2023-05-15T00:41:37.518Z,12.06
2023-05-15T00:44:05.263Z,12.01
2023-05-15T00:46:33.052Z,11.99
2023-05-15T00:49:00.816Z,11.96
2023-05-15T00:51:28.019Z,11.95
2023-05-15T00:53:56.829Z,11.91
2023-05-15T00:56:24.867Z,11.90
2023-05-15T00:58:52.387Z,11.88
2023-05-15T01:01:19.763Z,11.88
2023-05-15T01:03:46.989Z,11.87
2023-05-15T01:06:14.241Z,11.84
2023-05-15T01:08:46.812Z,11.82
2023-05-15T01:11:15.425Z,11.80
2023-05-15T01:13:43.252Z,11.77
2023-05-15T01:16:10.963Z,11.75
2023-05-15T01:18:38.301Z,11.72
2023-05-15T01:21:27.225Z,11.70
2023-05-15T01:23:57.504Z,11.64
2023-05-15T01:26:46.404Z,11.61
2023-05-15T01:29:21.871Z,11.59
2023-05-15T01:31:59.072Z,11.57
2023-05-15T01:34:32.544Z,11.53
2023-05-15T01:37:03.405Z,11.49
2023-05-15T01:39:33.282Z,11.44
2023-05-15T01:42:09.459Z,11.41
2023-05-15T01:44:39.344Z,11.40
2023-05-15T01:47:14.109Z,11.40
2023-05-15T01:49:43.220Z,11.38
2023-05-15T01:52:34.003Z,11.34
2023-05-15T01:55:05.042Z,11.32
2023-05-15T01:57:33.239Z,11.34
2023-05-15T02:00:01.135Z,11.33
2023-05-15T02:02:28.889Z,11.33
2023-05-15T02:04:56.938Z,11.33
2023-05-15T02:07:25.167Z,11.33
2023-05-15T02:09:52.815Z,11.29
2023-05-15T02:12:21.152Z,11.30
2023-05-15T02:14:49.752Z,11.29
2023-05-15T02:17:17.144Z,11.27
2023-05-15T02:19:44.383Z,11.25
2023-05-15T02:22:11.686Z,11.23
2023-05-15T02:24:39.184Z,11.24
2023-05-15T02:27:17.858Z,11.24
2023-05-15T02:30:06.548Z,11.26
2023-05-15T02:32:47.396Z,11.25
2023-05-15T02:35:20.635Z,11.22
2023-05-15T02:37:50.654Z,11.23
2023-05-15T02:40:19.668Z,11.24
2023-05-15T02:42:47.477Z,11.24
2023-05-15T02:45:14.959Z,11.25
2023-05-15T02:47:42.745Z,11.24
2023-05-15T02:50:10.578Z,11.25
2023-05-15T02:52:37.891Z,11.24
2023-05-15T02:55:06.301Z,11.24
2023-05-15T02:57:34.098Z,11.23
2023-05-15T03:00:01.484Z,11.24
2023-05-15T03:02:28.758Z,11.27
2023-05-15T03:04:56.082Z,11.28
2023-05-15T03:07:23.364Z,11.28
2023-05-15T03:09:50.560Z,11.28
2023-05-15T03:12:17.772Z,11.27
2023-05-15T03:14:44.990Z,11.25
2023-05-15T03:17:12.379Z,11.24
2023-05-15T03:19:39.711Z,11.22
2023-05-15T03:22:07.282Z,11.20
2023-05-15T03:24:34.563Z,11.18
2023-05-15T03:27:01.856Z,11.16
2023-05-15T03:29:29.367Z,11.15
2023-05-15T03:31:56.996Z,11.13
2023-05-15T03:34:24.246Z,11.14
2023-05-15T03:36:51.504Z,11.12
2023-05-15T03:39:18.781Z,11.13
2023-05-15T03:41:45.972Z,11.15
2023-05-15T03:44:13.328Z,11.14
2023-05-15T03:46:40.632Z,11.14
2023-05-15T03:49:08.000Z,11.13
2023-05-15T03:51:35.410Z,11.14
2023-05-15T03:54:05.182Z,11.16
2023-05-15T03:56:33.038Z,11.18
2023-05-15T03:59:00.282Z,11.20
2023-05-15T04:01:27.490Z,11.21
2023-05-15T04:03:54.724Z,11.22
2023-05-15T04:06:22.917Z,11.23
2023-05-15T04:08:50.406Z,11.24
2023-05-15T04:11:17.682Z,11.23
2023-05-15T04:13:44.950Z,11.24
2023-05-15T04:16:12.309Z,11.26
2023-05-15T04:18:39.583Z,11.24
2023-05-15T04:21:09.572Z,11.22
2023-05-15T04:23:36.806Z,11.22
2023-05-15T04:26:04.061Z,11.22
2023-05-15T04:28:32.407Z,11.23
2023-05-15T04:30:59.936Z,11.25
2023-05-15T04:33:27.213Z,11.26
2023-05-15T04:35:54.391Z,11.26
2023-05-15T04:38:21.581Z,11.29
2023-05-15T04:40:49.314Z,11.33
2023-05-15T04:43:16.600Z,11.38
2023-05-15T04:45:43.943Z,11.43
2023-05-15T04:48:11.201Z,11.47
2023-05-15T04:50:38.415Z,11.50
2023-05-15T04:53:15.175Z,11.52
2023-05-15T04:55:42.532Z,11.54
2023-05-15T04:58:09.932Z,11.59
2023-05-15T05:00:37.139Z,11.67
2023-05-15T05:03:04.929Z,11.76
2023-05-15T05:05:32.199Z,11.85
2023-05-15T05:07:59.424Z,11.96
2023-05-15T05:10:27.230Z,12.06
2023-05-15T05:12:55.385Z,12.18
2023-05-15T05:15:22.750Z,12.29
2023-05-15T05:17:50.101Z,12.39
2023-05-15T05:20:17.607Z,12.49
2023-05-15T05:22:44.956Z,12.60
2023-05-15T05:25:12.182Z,12.74
2023-05-15T05:27:39.484Z,12.85
2023-05-15T05:30:07.403Z,12.98
2023-05-15T05:32:34.711Z,13.10
2023-05-15T05:35:02.081Z,13.21
2023-05-15T05:37:29.434Z,13.33
2023-05-15T05:39:56.787Z,13.40
2023-05-15T05:42:24.019Z,13.49
2023-05-15T05:44:51.371Z,13.60
2023-05-15T05:47:18.594Z,13.63
2023-05-15T05:49:48.259Z,13.64
2023-05-15T05:52:16.764Z,13.64
2023-05-15T05:54:49.953Z,13.64
2023-05-15T05:57:17.538Z,13.65
2023-05-15T05:59:45.881Z,13.66
2023-05-15T06:02:13.484Z,13.68
2023-05-15T06:04:41.296Z,13.70
2023-05-15T06:07:08.884Z,13.72
2023-05-15T06:09:36.332Z,13.75
2023-05-15T06:12:08.301Z,13.77
2023-05-15T06:14:36.116Z,13.81
2023-05-15T06:17:03.756Z,13.86
2023-05-15T06:19:31.541Z,13.92
2023-05-15T06:21:58.820Z,13.97
2023-05-15T06:24:26.120Z,14.03
2023-05-15T06:26:53.469Z,14.09
2023-05-15T06:29:21.760Z,14.18
2023-05-15T06:31:48.995Z,14.28
2023-05-15T06:34:16.333Z,14.37
2023-05-15T06:36:43.534Z,14.50
2023-05-15T06:39:10.983Z,14.63
2023-05-15T06:41:38.590Z,14.76
2023-05-15T06:44:06.325Z,14.89
2023-05-15T06:46:33.868Z,15.01
2023-05-15T06:49:01.236Z,15.12
2023-05-15T06:51:28.491Z,15.28
2023-05-15T06:53:55.744Z,15.42
2023-05-15T06:56:23.011Z,15.57
2023-05-15T06:58:50.178Z,15.69
2023-05-15T07:01:17.392Z,15.83
2023-05-15T07:03:44.669Z,15.97
2023-05-15T07:06:11.848Z,16.09
2023-05-15T07:08:39.072Z,16.24
2023-05-15T07:11:06.326Z,16.43
2023-05-15T07:13:33.510Z,16.66
2023-05-15T07:16:00.774Z,16.82
2023-05-15T07:18:28.064Z,17.00
2023-05-15T07:20:55.426Z,17.19
2023-05-15T07:23:23.474Z,17.41
2023-05-15T07:25:52.644Z,17.62
2023-05-15T07:28:20.148Z,17.78
2023-05-15T07:30:47.331Z,17.93
2023-05-15T07:33:14.605Z,18.04
2023-05-15T07:35:41.777Z,18.13
2023-05-15T07:38:09.080Z,18.17
2023-05-15T07:40:36.304Z,18.18
2023-05-15T07:43:03.576Z,18.21
2023-05-15T07:45:30.862Z,18.26
2023-05-15T07:47:58.844Z,18.31
2023-05-15T07:50:26.179Z,18.30
2023-05-15T07:52:53.496Z,18.33
2023-05-15T07:55:20.730Z,18.36
2023-05-15T07:57:53.379Z,18.33
2023-05-15T08:00:22.557Z,18.33
2023-05-15T08:02:49.888Z,18.35
2023-05-15T08:05:17.301Z,18.41
2023-05-15T08:07:45.509Z,18.51
2023-05-15T08:10:13.468Z,18.63
2023-05-15T08:12:46.225Z,18.75
2023-05-15T08:15:13.826Z,18.90
2023-05-15T08:17:41.436Z,19.01
2023-05-15T08:20:09.721Z,19.08
2023-05-15T08:22:36.896Z,19.15
2023-05-15T08:25:05.932Z,19.16
2023-05-15T08:27:33.130Z,19.13
2023-05-15T08:30:00.453Z,19.15
2023-05-15T08:32:27.905Z,19.14
2023-05-15T08:34:55.168Z,19.15
2023-05-15T08:37:22.302Z,19.11
2023-05-15T08:39:49.553Z,19.05
2023-05-15T08:42:35.908Z,19.00
2023-05-15T08:45:03.272Z,18.92
2023-05-15T08:47:32.970Z,18.88
2023-05-15T08:50:07.205Z,18.73
2023-05-15T08:52:34.829Z,18.69
2023-05-15T08:55:02.625Z,18.64
2023-05-15T08:57:30.144Z,18.64
2023-05-15T08:59:57.915Z,18.66
2023-05-15T09:02:45.307Z,18.67
2023-05-15T09:05:12.773Z,18.67
2023-05-15T09:07:41.737Z,18.64
2023-05-15T09:10:09.897Z,18.66
2023-05-15T09:12:42.672Z,18.67
2023-05-15T09:15:18.030Z,18.68
2023-05-15T09:17:46.098Z,18.72
2023-05-15T09:20:34.384Z,18.74
2023-05-15T09:23:04.517Z,18.74
2023-05-15T09:25:47.106Z,18.77
2023-05-15T09:28:31.566Z,18.69
2023-05-15T09:31:03.887Z,18.66
2023-05-15T09:33:36.308Z,18.67
2023-05-15T09:36:04.816Z,18.84
2023-05-15T09:38:41.879Z,18.90
2023-05-15T09:41:09.657Z,19.03
2023-05-15T09:43:38.379Z,19.14
2023-05-15T09:46:06.538Z,19.26
2023-05-15T09:48:34.772Z,19.32
2023-05-15T09:51:02.236Z,19.43
2023-05-15T09:53:30.516Z,19.53
2023-05-15T09:55:58.301Z,19.63
2023-05-15T09:58:29.417Z,19.71
2023-05-15T10:00:59.765Z,19.85
2023-05-15T10:03:26.879Z,19.88
2023-05-15T10:06:01.356Z,19.94
2023-05-15T10:08:29.206Z,19.96
2023-05-15T10:10:59.923Z,19.98
2023-05-15T10:13:28.109Z,20.03
2023-05-15T10:15:59.989Z,20.07
2023-05-15T10:18:28.811Z,20.18
2023-05-15T10:20:58.613Z,20.27
2023-05-15T10:23:34.039Z,20.34
2023-05-15T10:26:04.766Z,20.41
2023-05-15T10:28:33.672Z,20.35
2023-05-15T10:31:05.477Z,20.33
2023-05-15T10:33:34.186Z,20.26
2023-05-15T10:36:20.043Z,20.19
2023-05-15T10:38:51.308Z,20.13
2023-05-15T10:41:21.202Z,20.07
2023-05-15T10:43:53.902Z,20.01
2023-05-15T10:46:22.465Z,19.80
2023-05-15T10:48:51.819Z,19.55
2023-05-15T10:51:32.960Z,19.22
2023-05-15T10:54:03.680Z,19.15
2023-05-15T10:56:32.846Z,19.12
2023-05-15T10:59:11.128Z,19.20
2023-05-15T11:01:40.009Z,19.28
2023-05-15T11:04:17.127Z,19.28
2023-05-15T11:06:49.376Z,19.38
2023-05-15T11:09:22.804Z,19.58
2023-05-15T11:12:00.727Z,19.76
2023-05-15T11:14:29.882Z,20.01
2023-05-15T11:16:58.050Z,20.14
2023-05-15T11:19:28.360Z,20.40
2023-05-15T11:22:06.200Z,20.68
2023-05-15T11:24:48.312Z,20.96
2023-05-15T11:27:21.277Z,21.10
2023-05-15T11:30:11.741Z,21.23
2023-05-15T11:32:51.900Z,21.54
2023-05-15T11:35:38.002Z,22.00
2023-05-15T11:38:11.665Z,22.48
2023-05-15T11:40:50.412Z,22.78
2023-05-15T11:43:36.395Z,23.03
2023-05-15T11:46:03.916Z,23.33
2023-05-15T11:48:35.956Z,23.63
2023-05-15T11:51:04.312Z,24.05
2023-05-15T11:53:33.594Z,24.57
2023-05-15T11:56:01.076Z,24.97
2023-05-15T12:02:46.460Z,25.77
2023-05-15T12:05:13.729Z,26.02
2023-05-15T12:07:42.953Z,26.26
2023-05-15T12:10:13.691Z,26.34
2023-05-15T12:12:42.302Z,26.18
2023-05-15T12:15:11.237Z,25.94
2023-05-15T12:17:39.987Z,25.79
2023-05-15T12:20:18.034Z,25.79
2023-05-15T12:22:45.712Z,25.78
2023-05-15T12:25:14.953Z,25.97
2023-05-15T12:27:43.522Z,26.15
2023-05-15T12:30:11.305Z,26.20
2023-05-15T12:32:39.168Z,26.57
2023-05-15T12:35:06.651Z,27.02
2023-05-15T12:37:36.193Z,27.45
2023-05-15T12:40:12.268Z,27.66
2023-05-15T12:46:58.621Z,29.04
2023-05-15T12:49:25.855Z,29.07
2023-05-15T12:51:53.198Z,28.68
2023-05-15T12:54:20.834Z,28.69
2023-05-15T12:56:48.584Z,28.58
2023-05-15T12:59:15.823Z,28.41
2023-05-15T13:01:43.219Z,28.46
2023-05-15T13:04:11.023Z,28.83
2023-05-15T13:06:46.231Z,28.83
2023-05-15T13:09:14.275Z,28.36
2023-05-15T13:11:45.153Z,27.87
2023-05-15T13:14:17.374Z,27.51
2023-05-15T13:16:46.621Z,27.23
2023-05-15T13:19:14.449Z,27.09
2023-05-15T13:21:41.755Z,26.72
2023-05-15T13:24:10.700Z,26.53
2023-05-15T13:26:37.988Z,26.53
2023-05-15T13:29:05.224Z,26.67
2023-05-15T13:31:32.587Z,26.54
2023-05-15T13:33:59.763Z,25.60
2023-05-15T13:36:27.004Z,24.39
2023-05-15T13:38:54.263Z,23.77
2023-05-15T13:41:22.479Z,23.27
2023-05-15T13:43:49.757Z,22.85
2023-05-15T13:46:17.067Z,22.57
2023-05-15T13:48:44.400Z,22.23
2023-05-15T13:51:11.640Z,21.78
2023-05-15T13:53:39.205Z,21.56
2023-05-15T13:56:06.579Z,21.26
2023-05-15T13:58:33.896Z,20.79
2023-05-15T14:01:04.805Z,20.36
2023-05-15T14:03:34.455Z,20.20
2023-05-15T14:06:02.022Z,20.06
2023-05-15T14:08:29.240Z,19.81
2023-05-15T14:10:56.448Z,19.71
2023-05-15T14:13:24.699Z,19.54
2023-05-15T14:15:52.570Z,19.31
2023-05-15T14:18:19.908Z,19.29
2023-05-15T14:20:47.065Z,19.25
2023-05-15T14:23:14.332Z,19.22
2023-05-15T14:25:44.369Z,19.19
2023-05-15T14:28:12.867Z,19.06
2023-05-15T14:30:41.477Z,19.00
2023-05-15T14:33:08.785Z,19.02
2023-05-15T14:35:36.730Z,19.02
2023-05-15T14:38:05.193Z,18.99
2023-05-15T14:40:32.660Z,19.02
2023-05-15T14:42:59.912Z,19.30
2023-05-15T14:45:27.543Z,19.97
2023-05-15T14:47:54.984Z,20.15
2023-05-15T14:50:22.349Z,20.31
2023-05-15T14:52:49.680Z,20.52
2023-05-15T14:55:22.097Z,20.82
2023-05-15T14:57:50.389Z,21.07
2023-05-15T15:00:18.058Z,21.28
2023-05-15T15:02:46.286Z,21.46
2023-05-15T15:05:13.781Z,21.82
2023-05-15T15:08:03.571Z,22.03
2023-05-15T15:10:33.890Z,22.14
2023-05-15T15:13:01.585Z,24.22
2023-05-15T15:15:30.532Z,27.10
2023-05-15T15:17:58.262Z,27.14
2023-05-15T15:20:27.504Z,26.03
2023-05-15T15:22:55.438Z,25.02
2023-05-15T15:25:22.938Z,24.38
2023-05-15T15:27:50.891Z,25.58
2023-05-15T15:30:18.453Z,26.73
2023-05-15T15:32:45.891Z,27.29
2023-05-15T15:35:13.288Z,26.95
2023-05-15T15:37:41.051Z,26.13
2023-05-15T15:40:08.746Z,25.32
2023-05-15T15:42:35.929Z,24.36
2023-05-15T15:45:03.498Z,23.66
2023-05-15T15:47:32.171Z,22.97
2023-05-15T15:50:00.182Z,22.44
2023-05-15T15:52:28.055Z,21.99
2023-05-15T15:54:55.410Z,21.67
2023-05-15T15:57:22.681Z,21.37
2023-05-15T15:59:50.017Z,21.13
2023-05-15T16:02:17.533Z,20.93
2023-05-15T16:04:44.961Z,20.68
2023-05-15T16:07:12.205Z,20.50
2023-05-15T16:09:39.397Z,20.29
2023-05-15T16:12:06.691Z,20.04
2023-05-15T16:14:34.272Z,19.80
2023-05-15T16:17:04.032Z,19.60
2023-05-15T16:19:31.363Z,19.45
2023-05-15T16:21:58.972Z,19.30
2023-05-15T16:24:26.487Z,19.12
2023-05-15T16:26:53.722Z,18.99
2023-05-15T16:29:21.146Z,18.87
2023-05-15T16:31:48.493Z,18.74
2023-05-15T16:34:15.893Z,18.57
2023-05-15T16:36:43.090Z,18.42
2023-05-15T16:39:10.301Z,18.21
2023-05-15T16:41:37.530Z,18.00
2023-05-15T16:44:10.727Z,17.83
2023-05-15T16:46:38.648Z,17.74
2023-05-15T16:49:07.272Z,17.72
2023-05-15T16:51:35.386Z,17.77
2023-05-15T16:54:02.695Z,17.90
2023-05-15T16:56:30.529Z,18.01
2023-05-15T16:58:59.128Z,18.01
2023-05-15T17:01:29.349Z,17.93
2023-05-15T17:03:56.764Z,17.77
2023-05-15T17:06:24.035Z,17.63
2023-05-15T17:08:51.303Z,17.57
2023-05-15T17:11:18.639Z,17.56
2023-05-15T17:13:46.118Z,17.52
2023-05-15T17:16:13.435Z,17.44
2023-05-15T17:18:43.042Z,17.40
2023-05-15T17:21:10.953Z,17.37
2023-05-15T17:23:38.097Z,17.34
2023-05-15T17:26:05.345Z,17.31
2023-05-15T17:28:32.642Z,17.32
2023-05-15T17:31:00.404Z,17.27
2023-05-15T17:33:27.812Z,17.32
2023-05-15T17:35:56.006Z,17.38
2023-05-15T17:38:23.365Z,17.37
2023-05-15T17:43:55.439Z,17.34
2023-05-15T17:46:23.003Z,17.15
2023-05-15T17:48:50.496Z,17.07
2023-05-15T17:51:17.911Z,17.04
2023-05-15T17:53:45.262Z,16.99
2023-05-15T17:56:12.681Z,16.95
2023-05-15T17:58:40.272Z,16.89
2023-05-15T18:01:07.497Z,16.77
2023-05-15T18:03:34.904Z,16.79
2023-05-15T18:06:04.089Z,16.78
2023-05-15T18:08:31.286Z,16.74
2023-05-15T18:11:04.183Z,16.70
2023-05-15T18:13:38.599Z,16.70
2023-05-15T18:16:06.718Z,16.68
2023-05-15T18:18:34.789Z,16.63
2023-05-15T18:21:02.390Z,16.55
2023-05-15T18:23:29.570Z,16.45
2023-05-15T18:25:56.823Z,16.39
2023-05-15T18:28:24.083Z,16.34
2023-05-15T18:30:51.295Z,16.29
2023-05-15T18:33:18.547Z,16.17
2023-05-15T18:35:45.902Z,16.09
2023-05-15T18:38:14.322Z,16.04
2023-05-15T18:40:41.848Z,16.05
2023-05-15T18:43:09.302Z,15.99
2023-05-15T18:45:36.571Z,15.95
2023-05-15T18:48:04.139Z,15.94
2023-05-15T18:50:31.545Z,15.94
2023-05-15T18:52:59.082Z,15.91
2023-05-15T18:55:27.561Z,15.89
2023-05-15T18:57:54.903Z,15.87
2023-05-15T19:00:33.934Z,15.85
2023-05-15T19:03:05.757Z,15.85
2023-05-15T19:05:34.322Z,15.83
2023-05-15T19:08:01.879Z,15.81
2023-05-15T19:10:29.484Z,15.80
2023-05-15T19:12:57.885Z,15.79
2023-05-15T19:15:25.742Z,15.83
2023-05-15T19:17:53.242Z,15.80
2023-05-15T19:20:20.976Z,15.77
2023-05-15T19:22:48.127Z,15.76
2023-05-15T19:25:15.651Z,15.73
2023-05-15T19:27:42.977Z,15.72
2023-05-15T19:30:11.145Z,15.73
2023-05-15T19:32:38.748Z,15.72
2023-05-15T19:35:06.363Z,15.67
2023-05-15T19:37:33.592Z,15.67
2023-05-15T19:40:00.904Z,15.64
2023-05-15T19:42:28.129Z,15.63
2023-05-15T19:44:55.453Z,15.56
2023-05-15T19:47:22.854Z,15.50
2023-05-15T19:49:50.215Z,15.46
2023-05-15T19:52:19.414Z,15.36
2023-05-15T19:54:46.777Z,15.28
2023-05-15T19:57:15.329Z,15.13
2023-05-15T19:59:42.503Z,15.09
2023-05-15T20:02:11.162Z,15.03
2023-05-15T20:04:38.426Z,14.94
2023-05-15T20:07:05.660Z,14.93
2023-05-15T20:09:33.212Z,14.88
2023-05-15T20:12:01.069Z,14.84
2023-05-15T20:14:28.320Z,14.80
2023-05-15T20:16:55.460Z,14.75
2023-05-15T20:19:24.730Z,14.69
2023-05-15T20:21:53.325Z,14.68
2023-05-15T20:24:25.568Z,14.66
2023-05-15T20:26:53.065Z,14.62
2023-05-15T20:29:20.316Z,14.58
2023-05-15T20:31:47.603Z,14.54
2023-05-15T20:34:14.966Z,14.55
2023-05-15T20:36:42.512Z,14.53
2023-05-15T20:39:10.618Z,14.54
2023-05-15T20:41:37.850Z,14.52
2023-05-15T20:44:05.155Z,14.53
2023-05-15T20:46:33.152Z,14.54
2023-05-15T20:49:00.556Z,14.50
2023-05-15T20:51:27.739Z,14.54
2023-05-15T20:53:54.981Z,14.51
2023-05-15T20:56:22.215Z,14.51
2023-05-15T20:58:49.405Z,14.50
2023-05-15T21:01:16.603Z,14.50
2023-05-15T21:03:44.355Z,14.48
2023-05-15T21:06:11.586Z,14.50
2023-05-15T21:08:38.872Z,14.52
2023-05-15T21:11:06.066Z,14.53
2023-05-15T21:13:33.274Z,14.48
2023-05-15T21:16:00.550Z,14.41
2023-05-15T21:18:27.788Z,14.39
2023-05-15T21:20:55.013Z,14.36
2023-05-15T21:23:22.341Z,14.39
2023-05-15T21:25:49.530Z,14.35
2023-05-15T21:28:16.846Z,14.34
2023-05-15T21:30:44.355Z,14.29
2023-05-15T21:33:11.761Z,14.27
2023-05-15T21:35:39.782Z,14.28
2023-05-15T21:38:07.074Z,14.29
2023-05-15T21:40:34.572Z,14.27
2023-05-15T21:43:01.843Z,14.29
2023-05-15T21:45:29.949Z,14.29
2023-05-15T21:47:57.337Z,14.28
2023-05-15T21:50:26.614Z,14.30
2023-05-15T21:52:54.010Z,14.27
2023-05-15T21:55:21.246Z,14.28
2023-05-15T21:57:48.434Z,14.28
2023-05-15T22:00:16.306Z,14.25
2023-05-15T22:03:08.474Z,14.29
2023-05-15T22:05:36.010Z,14.30
2023-05-15T22:08:28.456Z,14.24
2023-05-15T22:10:55.756Z,14.23
2023-05-15T22:13:23.658Z,14.22
2023-05-15T22:23:13.618Z,14.20
2023-05-15T22:25:44.180Z,14.19
2023-05-15T22:28:11.533Z,14.17
2023-05-15T22:30:38.704Z,14.19
2023-05-15T22:33:06.033Z,14.17
2023-05-15T22:35:33.243Z,14.17
2023-05-15T22:38:00.490Z,14.21
2023-05-15T22:40:28.056Z,14.22
2023-05-15T22:42:55.441Z,14.22
2023-05-15T22:45:22.617Z,14.21
2023-05-15T22:47:49.840Z,14.16
2023-05-15T22:50:18.424Z,14.13
2023-05-15T22:52:45.842Z,14.14
2023-05-15T22:55:13.136Z,14.13
2023-05-15T22:57:40.471Z,14.12
2023-05-15T23:00:08.117Z,14.09
2023-05-15T23:02:37.425Z,14.09
2023-05-15T23:05:05.049Z,14.05
2023-05-15T23:07:32.340Z,14.00
2023-05-15T23:09:59.577Z,13.97
2023-05-15T23:12:26.849Z,13.98
2023-05-15T23:14:54.094Z,13.92
2023-05-15T23:17:21.384Z,13.94
2023-05-15T23:19:48.756Z,13.91
2023-05-15T23:22:16.032Z,13.93
2023-05-15T23:24:43.197Z,13.90
2023-05-15T23:27:10.411Z,13.88
2023-05-15T23:29:37.633Z,13.81
2023-05-15T23:32:05.384Z,13.77
2023-05-15T23:34:32.500Z,13.76
2023-05-15T23:36:59.865Z,13.71
2023-05-15T23:39:27.170Z,13.66
2023-05-15T23:41:54.515Z,13.60
2023-05-15T23:44:21.761Z,13.54
2023-05-15T23:46:49.172Z,13.49
2023-05-15T23:49:16.537Z,13.47
2023-05-15T23:51:44.144Z,13.43
2023-05-15T23:54:11.703Z,13.41
2023-05-15T23:56:46.537Z,13.41
2023-05-15T23:59:13.906Z,13.40
